Accueil
METAR-TAF:

METAR-TAF

Aéroports :

Hilton Head Airport

Hilton Head Island, Caroline du Sud, États-Unis

latitude: 32-13N, longitude: 080-42W, altitude: 6 m

Observation

Le bulletin a été fait il y a 17 minutes, à 22:50 UTC
Vent calme
Température 12°C
Humidité 82%
Pression 1022 hPa
Visibilité: 16.1 km
Ciel clair

METAR: KHXD 202250Z 00000KT 10SM CLR 12/09 A3019

Heure: 18:07 (23:07 UTC)


TAF: absent

Observations et prévisions météorologiques de plus de 4000 aéroports (messages METAR et TAF).

Les stations disponibles sont représentées par des disques jaunes et rouges sur la carte.

Passer la souris dessus pour voir le nom de la station.

Cliquer dessus pour voir les observations et prévisions météorologiques.

Pour changer de carte: cliquez sur les boutons verts avec une croix noire pour zoomer, sur le bouton vert avec un tiret pour effectuer un zoom arrière, ou sur les flèches vertes pour les cartes adjacentes.


METAR-TAF: